Terminal Aerodrome Forecast
Issued by NWS

Home | Current Version | Previous Version | Text Only | Print | Product List | Glossary On
Versions: 1 2 3 4 5 6 7 8 9 10 11 12
000
FTUS42 TJSJ 011100
TAFISX
TAF
TISX 011120Z 0112/0212 VRB05KT P6SM SCT025
     FM011300 12013KT P6SM SCT025 SCT050
     FM012300 06005KT P6SM FEW025=

USA.gov is the U.S. government's official web portal to all federal, state and local government web resources and services.